This demonstration page uses our WeatherBlox Daily Observations layout. Learn more.

Left ArrowRight Arrow

39.08367, -84.50855

Hourly Observations for May 5, 2020

Temp ( °F °C ) Dew Point ( °F °C ) Humidity (%) Winds ( mph kmh ) Pressure ( in mb ) Visibility ( mi km ) Precip ( " mm )
12:53 am 00:53 Clear 57 13.9 43 6.1 60 60 NE 7 11 29.95 1014 10 16.0934 0 0
1:53 am 01:53 Mostly Cloudy 57 13.9 42 5.6 58 58 ENE 8 13 29.95 1014 10 16.0934 0 0
2:53 am 02:53 Cloudy 55 12.8 42 5.6 62 62 ENE 17 28 29.9 1013 10 16.0934 0 0
3:53 am 03:53 Cloudy 54 12.2 42 5.6 64 64 ENE 12 19 29.91 1013 10 16.0934 0 0
4:53 am 04:53 Cloudy with Light Rain 51 10.6 43 6.1 74 74 NNE 12 19 29.92 1013 10 16.0934 0.01 0.254
5:53 am 05:53 Cloudy with Light Rain 48 8.9 43 6.1 83 83 NE 14 22 29.9 1013 10 16.0934 0.07 1.778
6:53 am 06:53 Cloudy with Light Rain 46 7.8 43 6.1 89 89 ENE 9 15 29.89 1012 7 11.26538 0.06 1.524
7:53 am 07:53 Cloudy with Light Rain 46 7.8 40 4.4 79 79 ENE 5 7 29.92 1013 10 16.0934 0.001 0.001
9:53 am 09:53 Cloudy 47 8.3 36 2.2 66 66 ENE 12 19 29.87 1012 10 16.0934 0.001 0.001
10:53 am 10:53 Cloudy with Light Rain 48 8.9 34 1.1 58 58 ENE 6 9 29.87 1012 10 16.0934 0.001 0.001
11:53 am 11:53 Cloudy with Light Rain 49 9.4 35 1.7 59 59 E 9 15 29.85 1011 10 16.0934 0.001 0.001
12:53 pm 12:53 Cloudy with Light Rain 50 10 36 2.2 59 59 ENE 9 15 29.82 1010 10 16.0934 0.001 0.001
1:53 pm 13:53 Cloudy with Light Rain 52 11.1 37 2.8 57 57 NE 6 9 29.8 1009 10 16.0934 0.001 0.001
2:53 pm 14:53 Cloudy 50 10 40 4.4 68 68 NE 7 11 29.8 1009 10 16.0934 0.001 0.001
3:53 pm 15:53 Cloudy 50 10 41 5 71 71 VRB 3 6 29.82 1010 10 16.0934 0 0
4:53 pm 16:53 Cloudy 51 10.6 39 3.9 64 64 N 6 9 29.84 1010 10 16.0934 0 0
5:53 pm 17:53 Cloudy 52 11.1 38 3.3 59 59 N 7 11 29.84 1010 10 16.0934 0 0
6:53 pm 18:53 Cloudy 51 10.6 37 2.8 59 59 NNE 6 9 29.85 1011 10 16.0934 0 0
7:53 pm 19:53 Cloudy 51 10.6 39 3.9 64 64 Calm 29.86 1011 10 16.0934 0 0
8:53 pm 20:53 Cloudy 50 10 36 2.2 59 59 NNW 9 15 29.88 1012 10 16.0934 0 0
9:53 pm 21:53 Cloudy 50 10 35 1.7 57 57 NW 6 9 29.92 1013 10 16.0934 0 0
10:53 pm 22:53 Cloudy 49 9.4 35 1.7 59 59 N 8 13 29.93 1014 10 16.0934 0 0
11:53 pm 23:53 Cloudy 48 8.9 35 1.7 61 61 N 8 13 29.93 1014 10 16.0934 0 0

Powered by AerisWeather